Salem, Florida
Current Conditions -  °F | °C
As of 4:35 PM on Thursday 18 Dec 2014 (Local Time) from K40J Reporting Station
Clear Clear  
Wind Chill: 62°   Ceiling: Unl
Heat Index: 62°   Visibility: 10mi
Dew Point: 48°   Wind: 6mph
Humidity: 60%   Direction: 250°WSW
Pressure: 30.12"   Gusts: NA
Location:  29.89°N, 83.41°W
Report Text: K40J 182135Z AUTO 25005KT 10SM CLR 17/09 A3012 RMK AO2 T01660088
Loading
Personal Weather Stations






























Interactive Weather Map New forecast layout! Learn more

10-Day Weather Forecast

Advertisements
Track Severe Weather on mobile